Time;durP1;ratioP1;P1;durP2;ratioP2;P2;SDS_P1;SDS_P2;PMS_P1;PMS_P2;Temp;Humidity;BMP_temperature;BMP_pressure;BME280_temperature;BME280_humidity;BME280_pressure;Samples;Min_cycle;Max_cycle;Signal;HPM_P1;HPM_P2
2021/04/01 00:01:19;;;;;;;5.25;2.20;;;10.20;99.90;;;;;;1904684;75;21159;-76
2021/04/01 00:03:45;;;;;;;1.95;1.50;;;10.10;99.90;;;;;;1905070;75;21038;-75
2021/04/01 00:06:11;;;;;;;2.87;1.52;;;10.20;99.90;;;;;;1902943;75;21062;-75
2021/04/01 00:08:39;;;;;;;5.45;2.10;;;10.10;99.90;;;;;;1905520;75;21077;-75
2021/04/01 00:11:05;;;;;;;2.50;1.60;;;10.20;99.90;;;;;;1905581;75;21099;-76
2021/04/01 00:13:31;;;;;;;12.45;2.25;;;10.10;99.90;;;;;;1905596;75;21191;-76
2021/04/01 00:15:58;;;;;;;2.22;1.32;;;10.00;99.90;;;;;;1905763;75;21082;-76
2021/04/01 00:18:25;;;;;;;4.95;2.12;;;10.00;99.90;;;;;;1905370;75;21148;-77
2021/04/01 00:20:51;;;;;;;6.85;2.08;;;9.90;99.90;;;;;;1905515;75;21089;-76
2021/04/01 00:23:17;;;;;;;2.47;1.60;;;9.90;99.90;;;;;;1905675;75;21526;-76
2021/04/01 00:25:43;;;;;;;4.67;2.10;;;9.90;99.90;;;;;;1905441;75;21493;-76
2021/04/01 00:28:09;;;;;;;2.40;1.70;;;9.80;99.90;;;;;;1905664;75;21482;-75
2021/04/01 00:30:35;;;;;;;5.87;1.87;;;9.90;99.90;;;;;;1905538;75;21572;-75
2021/04/01 00:33:01;;;;;;;3.47;1.80;;;9.80;99.90;;;;;;1905755;75;21073;-75
2021/04/01 00:35:27;;;;;;;8.33;2.05;;;9.80;99.90;;;;;;1905069;75;21077;-76
2021/04/01 00:37:54;;;;;;;1.85;1.50;;;9.80;99.90;;;;;;1903771;74;21094;-75
2021/04/01 00:40:20;;;;;;;9.50;2.67;;;9.70;99.90;;;;;;1905206;75;21150;-75
2021/04/01 00:42:46;;;;;;;6.90;2.17;;;9.70;99.90;;;;;;1903999;75;21155;-75
2021/04/01 00:45:12;;;;;;;5.72;2.20;;;9.60;99.90;;;;;;1904813;75;21148;-75
2021/04/01 00:47:38;;;;;;;2.85;1.55;;;9.60;99.90;;;;;;1903607;75;21135;-76
2021/04/01 00:50:04;;;;;;;4.90;1.37;;;9.50;99.90;;;;;;1904789;75;21066;-76
2021/04/01 00:52:30;;;;;;;5.65;1.95;;;9.50;99.90;;;;;;1904865;75;21047;-76
2021/04/01 00:54:56;;;;;;;2.67;1.55;;;9.40;99.90;;;;;;1903784;75;21121;-75
2021/04/01 00:57:23;;;;;;;15.05;2.02;;;9.40;99.90;;;;;;1904771;75;21081;-76
2021/04/01 00:59:51;;;;;;;4.72;1.72;;;9.40;99.90;;;;;;1904786;75;21085;-76
2021/04/01 01:02:16;;;;;;;2.47;1.50;;;9.30;99.90;;;;;;1904189;75;21126;-76
2021/04/01 01:04:43;;;;;;;5.10;1.90;;;9.30;99.90;;;;;;1904253;75;21065;-75
2021/04/01 01:07:09;;;;;;;3.37;1.90;;;9.30;99.90;;;;;;1903836;75;21072;-75
2021/04/01 01:09:35;;;;;;;3.98;1.75;;;9.20;99.90;;;;;;1903866;75;21070;-76
2021/04/01 01:12:01;;;;;;;5.45;2.00;;;9.30;99.90;;;;;;1904823;75;21082;-75
2021/04/01 01:14:27;;;;;;;2.40;1.52;;;9.30;99.90;;;;;;1904889;75;21069;-75
2021/04/01 01:16:55;;;;;;;5.28;1.35;;;9.30;99.90;;;;;;1903757;75;21081;-75
2021/04/01 01:19:21;;;;;;;3.75;1.52;;;9.30;99.90;;;;;;1904770;75;21669;-75
2021/04/01 01:21:47;;;;;;;3.80;1.87;;;9.30;99.90;;;;;;1903707;75;21564;-75
2021/04/01 01:24:13;;;;;;;6.20;1.62;;;9.20;99.90;;;;;;1904845;75;21474;-76
2021/04/01 01:26:41;;;;;;;3.77;1.62;;;9.20;99.90;;;;;;1906447;75;21147;-75
2021/04/01 01:29:07;;;;;;;4.60;2.02;;;9.10;99.90;;;;;;1901769;75;21152;-76
2021/04/01 01:31:34;;;;;;;3.25;1.95;;;9.10;99.90;;;;;;1903767;75;21155;-76
2021/04/01 01:34:00;;;;;;;6.83;1.77;;;9.20;99.90;;;;;;1904172;75;21085;-75
2021/04/01 01:36:26;;;;;;;5.85;2.02;;;9.10;99.90;;;;;;1901729;74;21151;-76
2021/04/01 01:38:52;;;;;;;4.30;1.92;;;9.00;99.90;;;;;;1904017;75;21046;-76
2021/04/01 01:41:18;;;;;;;6.87;2.05;;;9.00;99.90;;;;;;1905036;75;21072;-76
2021/04/01 01:43:44;;;;;;;7.55;2.10;;;9.00;99.90;;;;;;1904765;75;21155;-76
2021/04/01 01:46:10;;;;;;;5.10;2.17;;;8.90;99.90;;;;;;1905061;75;21073;-75
2021/04/01 01:48:37;;;;;;;1.22;1.05;;;8.90;99.90;;;;;;1904762;75;21078;-76
2021/04/01 01:51:03;;;;;;;3.22;1.65;;;8.90;99.90;;;;;;1904936;75;21085;-76
2021/04/01 01:53:29;;;;;;;2.75;1.20;;;8.80;99.90;;;;;;1904912;75;21046;-75
2021/04/01 01:55:55;;;;;;;3.67;1.62;;;8.70;99.90;;;;;;1905070;75;21155;-76
2021/04/01 01:58:22;;;;;;;4.58;1.92;;;8.70;99.90;;;;;;1902666;75;21144;-76
2021/04/01 02:00:49;;;;;;;8.40;2.12;;;8.70;99.90;;;;;;1903798;75;21139;-75
2021/04/01 02:03:16;;;;;;;3.50;1.80;;;8.70;99.90;;;;;;1904657;75;21163;-75
2021/04/01 02:05:42;;;;;;;7.00;2.30;;;8.60;99.90;;;;;;1903719;75;21079;-75
2021/04/01 02:08:08;;;;;;;4.70;1.75;;;8.70;99.90;;;;;;1904959;75;21152;-75
2021/04/01 02:10:34;;;;;;;7.33;1.77;;;8.60;99.90;;;;;;1904835;75;21078;-74
2021/04/01 02:13:00;;;;;;;4.20;2.30;;;8.60;99.90;;;;;;1904164;75;21232;-75
2021/04/01 02:15:26;;;;;;;4.40;1.90;;;8.60;99.90;;;;;;1904484;75;21191;-75
2021/04/01 02:17:52;;;;;;;3.05;1.52;;;8.50;99.90;;;;;;1904913;75;21123;-75
2021/04/01 02:20:18;;;;;;;7.62;2.00;;;8.40;99.90;;;;;;1904758;75;21151;-75
2021/04/01 02:22:45;;;;;;;6.25;1.98;;;8.50;99.90;;;;;;1904858;75;21042;-75
2021/04/01 02:25:11;;;;;;;5.62;1.77;;;8.40;99.90;;;;;;1903771;75;21204;-75
2021/04/01 02:27:37;;;;;;;7.72;2.12;;;8.40;99.90;;;;;;1903806;75;21139;-75
2021/04/01 02:30:03;;;;;;;2.35;1.85;;;8.40;99.90;;;;;;1904783;75;21090;-75
2021/04/01 02:32:29;;;;;;;3.47;1.65;;;8.30;99.90;;;;;;1903661;75;21082;-75
2021/04/01 02:34:55;;;;;;;8.78;2.30;;;8.30;99.90;;;;;;1904703;75;21141;-75
2021/04/01 02:37:21;;;;;;;2.85;1.55;;;8.30;99.90;;;;;;1903740;75;21565;-75
2021/04/01 02:39:47;;;;;;;3.77;1.95;;;8.20;99.90;;;;;;1903570;75;21639;-75
2021/04/01 02:42:13;;;;;;;3.45;1.90;;;8.20;99.90;;;;;;1904663;75;21612;-75
2021/04/01 02:44:40;;;;;;;2.33;1.90;;;8.20;99.90;;;;;;1904590;75;21135;-75
2021/04/01 02:47:06;;;;;;;5.70;2.12;;;8.10;99.90;;;;;;1902602;75;21090;-75
2021/04/01 02:49:32;;;;;;;3.50;1.72;;;8.10;99.90;;;;;;1904719;75;21077;-75
2021/04/01 02:51:58;;;;;;;5.20;1.80;;;8.20;99.90;;;;;;1904867;75;21047;-76
2021/04/01 02:54:24;;;;;;;2.58;2.12;;;8.10;99.90;;;;;;1904774;75;21074;-75
2021/04/01 02:56:50;;;;;;;5.35;2.20;;;8.10;99.90;;;;;;1904677;75;21148;-75
2021/04/01 02:59:16;;;;;;;4.30;1.98;;;8.10;99.90;;;;;;1905068;75;21074;-75
2021/04/01 03:01:43;;;;;;;2.27;1.65;;;8.10;99.90;;;;;;1904922;75;21155;-75
2021/04/01 03:04:10;;;;;;;3.50;1.98;;;8.00;99.90;;;;;;1904859;75;21575;-75
2021/04/01 03:06:36;;;;;;;3.27;1.98;;;8.00;99.90;;;;;;1904743;75;21089;-75
2021/04/01 03:09:03;;;;;;;3.08;2.05;;;8.00;99.90;;;;;;1903672;75;21080;-75
2021/04/01 03:11:29;;;;;;;6.60;2.42;;;7.90;99.90;;;;;;1904825;75;21082;-75
2021/04/01 03:13:57;;;;;;;11.83;1.92;;;7.90;99.90;;;;;;1904835;75;21148;-75
2021/04/01 03:16:23;;;;;;;3.65;1.85;;;7.90;99.90;;;;;;1904874;75;21513;-74
2021/04/01 03:18:49;;;;;;;3.33;2.27;;;8.00;99.90;;;;;;1902546;75;21485;-75
2021/04/01 03:21:15;;;;;;;3.72;1.95;;;7.90;99.90;;;;;;1904940;75;21501;-75
2021/04/01 03:23:41;;;;;;;4.37;1.90;;;7.80;99.90;;;;;;1904685;75;21144;-74
2021/04/01 03:26:07;;;;;;;3.47;2.17;;;7.80;99.90;;;;;;1903574;75;21124;-75
2021/04/01 03:28:34;;;;;;;3.35;2.35;;;7.80;99.90;;;;;;1904985;75;21069;-75
2021/04/01 03:31:03;;;;;;;4.47;2.52;;;7.80;99.90;;;;;;1904967;75;21085;-74
2021/04/01 03:33:29;;;;;;;6.25;2.27;;;7.70;99.90;;;;;;1903984;75;21165;-74
2021/04/01 03:35:55;;;;;;;3.60;1.98;;;7.80;99.90;;;;;;1904716;75;21125;-76
2021/04/01 03:38:21;;;;;;;2.95;2.08;;;7.80;99.90;;;;;;1904973;75;21147;-75
2021/04/01 03:40:48;;;;;;;3.40;1.87;;;7.80;99.90;;;;;;1902532;74;21085;-75
2021/04/01 03:43:14;;;;;;;3.75;2.55;;;7.80;99.90;;;;;;1904098;75;21124;-75
2021/04/01 03:45:40;;;;;;;9.30;2.30;;;7.80;99.90;;;;;;1904960;75;21085;-75
2021/04/01 03:48:06;;;;;;;8.33;2.27;;;7.80;99.90;;;;;;1905772;75;21234;-75
2021/04/01 03:50:32;;;;;;;3.58;2.08;;;7.80;99.90;;;;;;1908503;75;21063;-75
2021/04/01 03:52:58;;;;;;;6.33;2.05;;;7.80;99.90;;;;;;1907382;73;21105;-75
2021/04/01 03:57:58;;;;;;;6.75;2.77;;;7.80;99.90;;;;;;1894869;75;21106;-75
2021/04/01 04:00:24;;;;;;;3.27;2.15;;;7.80;99.90;;;;;;1901415;75;21065;-75
2021/04/01 04:10:55;;;;;;;3.67;2.20;;;7.70;99.90;;;;;;1902814;75;21082;-76
2021/04/01 04:13:23;;;;;;;3.30;2.15;;;7.70;99.90;;;;;;1901720;75;21304;-75
2021/04/01 04:15:44;;;;;;;10.25;2.50;;;7.70;99.90;;;;;;1904280;75;21106;-75
2021/04/01 04:18:10;;;;;;;8.63;2.47;;;7.60;99.90;;;;;;1905257;75;21151;-75
2021/04/01 04:20:37;;;;;;;4.72;2.62;;;7.60;99.90;;;;;;1905383;75;21174;-74
2021/04/01 04:23:03;;;;;;;4.55;2.37;;;7.60;99.90;;;;;;1905326;75;21085;-74
2021/04/01 04:25:30;;;;;;;6.08;2.42;;;7.60;99.90;;;;;;1904054;75;21188;-74
2021/04/01 04:28:05;;;;;;;6.85;2.35;;;7.60;99.90;;;;;;1905071;75;21085;-74
2021/04/01 04:30:24;;;;;;;4.08;1.92;;;7.50;99.90;;;;;;1903984;75;21081;-75
2021/04/01 04:32:50;;;;;;;8.00;2.10;;;7.50;99.90;;;;;;1903972;75;21066;-76
2021/04/01 04:35:16;;;;;;;7.55;2.58;;;7.50;99.90;;;;;;1904752;75;21156;-74
2021/04/01 04:37:43;;;;;;;3.60;2.30;;;7.40;99.90;;;;;;1904927;75;21073;-74
2021/04/01 04:40:09;;;;;;;4.35;2.35;;;7.30;99.90;;;;;;1905041;75;21077;-75
2021/04/01 04:42:35;;;;;;;3.42;2.35;;;7.40;99.90;;;;;;1902500;75;21224;-75
2021/04/01 04:45:01;;;;;;;5.60;2.33;;;7.40;99.90;;;;;;1903630;75;21042;-74
2021/04/01 04:47:28;;;;;;;4.85;2.30;;;7.40;99.90;;;;;;1901335;75;21074;-75
2021/04/01 04:49:54;;;;;;;5.00;2.50;;;7.40;99.90;;;;;;1904473;75;21093;-74
2021/04/01 04:52:21;;;;;;;3.83;2.00;;;7.40;99.90;;;;;;1904224;75;21493;-74
2021/04/01 04:54:48;;;;;;;5.75;2.37;;;7.30;99.90;;;;;;1903664;74;21118;-74
2021/04/01 04:57:24;;;;;;;7.28;2.95;;;7.30;99.90;;;;;;1904076;75;21073;-75
2021/04/01 05:00:19;;;;;;;6.20;2.58;;;7.30;99.90;;;;;;1902764;75;21081;-73
2021/04/01 05:05:12;;;;;;;5.37;2.22;;;7.30;99.90;;;;;;1903487;75;21115;-74
2021/04/01 05:07:38;;;;;;;4.78;2.58;;;7.30;99.90;;;;;;1903615;75;21151;-73
2021/04/01 05:10:04;;;;;;;3.40;2.47;;;7.40;99.90;;;;;;1904875;75;21139;-73
2021/04/01 05:12:32;;;;;;;8.05;2.50;;;7.40;99.90;;;;;;1903251;75;21085;-74
2021/04/01 05:14:58;;;;;;;4.72;2.58;;;7.40;99.90;;;;;;1904642;75;21087;-73
2021/04/01 05:17:24;;;;;;;4.28;2.67;;;7.40;99.90;;;;;;1903804;75;21474;-73
2021/04/01 05:19:56;;;;;;;4.25;2.55;;;7.40;99.90;;;;;;1903756;75;21062;-73
2021/04/01 05:22:29;;;;;;;5.05;2.77;;;7.40;99.90;;;;;;1901395;75;21408;-74
2021/04/01 05:24:51;;;;;;;3.08;2.00;;;7.50;99.90;;;;;;1904140;75;21081;-74
2021/04/01 05:27:27;;;;;;;9.05;3.35;;;7.50;99.90;;;;;;1903284;75;21419;-74
2021/04/01 05:29:58;;;;;;;7.00;3.25;;;7.50;99.90;;;;;;1901987;75;21083;-75
2021/04/01 05:32:24;;;;;;;3.70;2.52;;;7.60;99.90;;;;;;1903648;75;21051;-75
2021/04/01 05:34:51;;;;;;;7.92;2.77;;;7.60;99.90;;;;;;1904785;75;21154;-74
2021/04/01 05:37:17;;;;;;;7.55;2.70;;;7.70;99.90;;;;;;1903616;75;21124;-74
2021/04/01 05:39:45;;;;;;;6.42;2.70;;;7.80;99.90;;;;;;1903921;75;21282;-71
2021/04/01 05:42:13;;;;;;;7.28;2.40;;;7.90;99.90;;;;;;1904980;75;21127;-71
2021/04/01 05:44:45;;;;;;;8.80;3.35;;;7.90;99.90;;;;;;1904815;75;21145;-74
2021/04/01 05:58:25;;;;;;;8.65;3.30;;;8.30;99.90;;;;;;1904676;75;21490;-72
2021/04/01 06:00:22;;;;;;;7.97;3.35;;;8.40;99.90;;;;;;1865478;75;21155;-72
2021/04/01 06:02:42;;;;;;;10.03;3.17;;;8.40;99.90;;;;;;1899914;75;21078;-72
2021/04/01 06:05:02;;;;;;;10.25;2.87;;;8.50;99.90;;;;;;1902022;75;21054;-73
2021/04/01 06:07:31;;;;;;;7.55;3.12;;;8.50;99.90;;;;;;1904658;75;21139;-72
2021/04/01 06:09:56;;;;;;;7.12;2.87;;;8.70;99.90;;;;;;1904772;75;21306;-71
2021/04/01 06:12:22;;;;;;;6.55;3.05;;;8.80;99.90;;;;;;1904723;75;21136;-71
2021/04/01 06:14:48;;;;;;;13.65;3.47;;;8.90;99.90;;;;;;1904682;75;21155;-72
2021/04/01 06:17:15;;;;;;;13.83;2.80;;;9.00;99.90;;;;;;1904894;75;21157;-76
2021/04/01 06:19:42;;;;;;;11.65;3.47;;;9.00;99.90;;;;;;1904982;75;21081;-72
2021/04/01 06:22:10;;;;;;;11.95;3.30;;;9.10;99.90;;;;;;1902352;75;21073;-73
2021/04/01 06:24:38;;;;;;;13.93;2.95;;;9.20;99.90;;;;;;1904506;75;21121;-72
2021/04/01 06:27:13;;;;;;;14.15;3.37;;;9.20;99.90;;;;;;1904640;75;21085;-73
2021/04/01 06:29:32;;;;;;;7.28;3.50;;;9.30;99.90;;;;;;1902073;75;21511;-73
2021/04/01 06:32:02;;;;;;;10.50;2.80;;;9.30;99.90;;;;;;1904061;75;21159;-73
2021/04/01 06:34:26;;;;;;;13.03;3.33;;;9.40;99.90;;;;;;1903334;75;21139;-72
2021/04/01 06:36:55;;;;;;;7.67;2.58;;;9.50;99.90;;;;;;1904983;75;21082;-74
2021/04/01 06:39:20;;;;;;;5.12;2.98;;;9.60;99.90;;;;;;1903765;75;21164;-73
2021/04/01 06:41:48;;;;;;;9.10;3.22;;;9.70;99.90;;;;;;1904915;75;21125;-73
2021/04/01 06:44:14;;;;;;;9.98;3.52;;;9.70;99.90;;;;;;1905332;75;21077;-71
2021/04/01 06:46:40;;;;;;;9.20;3.20;;;9.80;99.90;;;;;;1904385;75;21169;-71
2021/04/01 06:51:39;;;;;;;8.05;3.60;;;10.20;99.90;;;;;;1784080;79;21122;-72
2021/04/01 06:54:09;;;;;;;5.53;3.05;;;10.30;99.90;;;;;;1875388;75;21178;-72
2021/04/01 06:56:44;;;;;;;26.07;3.47;;;10.50;99.90;;;;;;1903852;75;21078;-73
2021/04/01 06:59:22;;;;;;;8.15;2.40;;;10.80;99.90;;;;;;1903928;75;21600;-72
2021/04/01 07:01:46;;;;;;;8.18;3.22;;;11.10;99.90;;;;;;1903590;75;21423;-70
2021/04/01 07:04:12;;;;;;;9.78;3.05;;;11.10;99.90;;;;;;1904931;75;21107;-70
2021/04/01 07:06:41;;;;;;;6.75;2.65;;;11.20;99.90;;;;;;1905349;75;21136;-72
2021/04/01 07:09:12;;;;;;;6.12;2.70;;;11.30;99.90;;;;;;1905112;75;21526;-71
2021/04/01 07:11:42;;;;;;;8.03;2.90;;;11.40;99.90;;;;;;1904434;75;21172;-73
2021/04/01 07:14:05;;;;;;;6.95;3.05;;;11.40;99.90;;;;;;1902480;75;21204;-72
2021/04/01 07:16:39;;;;;;;5.60;2.62;;;11.40;99.90;;;;;;1903947;75;21093;-72
2021/04/01 07:32:48;;;;;;;9.00;3.22;;;11.90;99.90;;;;;;1896919;75;22655;-73
2021/04/01 07:35:09;;;;;;;14.98;3.17;;;12.00;99.90;;;;;;1898826;75;21043;-73
2021/04/01 07:47:58;;;;;;;10.45;2.75;;;12.70;99.90;;;;;;1827333;75;21085;-73
2021/04/01 07:50:26;;;;;;;11.30;2.47;;;12.90;99.90;;;;;;1905032;75;21494;-72
2021/04/01 07:52:53;;;;;;;5.65;3.10;;;13.10;99.90;;;;;;1904973;75;21082;-71
2021/04/01 07:55:36;;;;;;;4.28;3.00;;;13.30;99.90;;;;;;1905516;75;21462;-70
2021/04/01 08:03:19;;;;;;;4.95;2.67;;;13.80;99.90;;;;;;1831499;75;21077;-71
2021/04/01 08:05:34;;;;;;;7.05;2.58;;;13.90;99.90;;;;;;1902554;75;21459;-70
2021/04/01 08:08:01;;;;;;;5.53;2.20;;;14.20;99.90;;;;;;1905517;75;21141;-71
2021/04/01 08:10:28;;;;;;;6.17;2.70;;;14.50;99.90;;;;;;1905787;75;21137;-71
2021/04/01 08:12:55;;;;;;;5.97;2.98;;;14.60;99.90;;;;;;1905566;75;21077;-71
2021/04/01 08:15:24;;;;;;;10.88;2.77;;;15.00;99.90;;;;;;1905620;75;21160;-72
2021/04/01 08:18:36;;;;;;;20.20;2.92;;;15.40;99.90;;;;;;1903886;75;21082;-71
2021/04/01 08:20:17;;;;;;;4.95;2.52;;;15.60;99.90;;;;;;1865891;75;21108;-71
2021/04/01 08:22:50;;;;;;;7.87;3.10;;;15.70;99.90;;;;;;1905527;75;21143;-70
2021/04/01 08:25:14;;;;;;;3.02;2.20;;;15.70;99.90;;;;;;1903795;75;21499;-70
2021/04/01 08:27:48;;;;;;;7.65;2.33;;;16.00;99.90;;;;;;1905378;75;21081;-70
2021/04/01 08:33:05;;;;;;;8.43;3.75;;;16.00;99.90;;;;;;1780721;80;21295;-71
2021/04/01 08:35:26;;;;;;;;;;;16.40;99.90;;;;;;1783647;80;21503;-71
2021/04/01 08:38:12;;;;;;;5.28;2.47;;;17.10;99.90;;;;;;1825538;75;20114;-71
2021/04/01 08:40:38;;;;;;;12.88;2.70;;;17.20;99.90;;;;;;1904325;75;21090;-71
2021/04/01 08:43:05;;;;;;;6.47;3.08;;;17.50;99.90;;;;;;1904562;75;21042;-72
2021/04/01 08:45:31;;;;;;;11.45;2.25;;;17.60;99.90;;;;;;1904082;75;21164;-72
2021/04/01 08:47:57;;;;;;;4.62;2.50;;;18.10;99.90;;;;;;1904470;75;21140;-72
2021/04/01 08:50:29;;;;;;;6.25;2.50;;;18.30;99.90;;;;;;1904269;75;21078;-71
2021/04/01 08:52:56;;;;;;;3.95;2.27;;;18.60;99.90;;;;;;1905336;75;21108;-71
2021/04/01 08:58:07;;;;;;;10.68;2.77;;;18.80;99.90;;;;;;1845378;76;21118;-72
2021/04/01 09:00:33;;;;;;;11.78;2.67;;;19.30;99.90;;;;;;1836260;77;21089;-72
2021/04/01 09:03:00;;;;;;;9.18;3.20;;;19.40;99.90;;;;;;1848434;76;21156;-72
2021/04/01 09:05:26;;;;;;;8.10;3.08;;;19.30;99.90;;;;;;1856003;76;21101;-72
2021/04/01 09:07:53;;;;;;;7.08;2.10;;;18.70;99.90;;;;;;1855741;76;21510;-71
2021/04/01 09:10:24;;;;;;;5.25;2.52;;;19.20;99.90;;;;;;1856264;76;21105;-72
2021/04/01 09:13:01;;;;;;;9.00;2.50;;;19.50;99.90;;;;;;1850821;76;21098;-72
2021/04/01 09:15:33;;;;;;;4.70;2.62;;;19.70;99.90;;;;;;1852705;76;21097;-71
2021/04/01 09:17:51;;;;;;;5.75;2.72;;;20.10;99.90;;;;;;1855495;76;21454;-71
2021/04/01 09:20:20;;;;;;;3.80;2.08;;;19.40;99.90;;;;;;1852592;76;21545;-72
2021/04/01 09:22:46;;;;;;;4.72;2.52;;;19.80;99.90;;;;;;1854857;76;21273;-72
2021/04/01 09:25:13;;;;;;;5.35;2.22;;;20.00;99.90;;;;;;1828251;77;21219;-72
2021/04/01 09:27:39;;;;;;;8.80;2.22;;;20.20;99.90;;;;;;1851180;76;21204;-72
2021/04/01 09:30:05;;;;;;;9.58;2.65;;;20.70;99.90;;;;;;1855140;76;21159;-72
2021/04/01 09:32:31;;;;;;;4.80;2.35;;;20.30;99.90;;;;;;1837836;76;21050;-72
2021/04/01 09:34:57;;;;;;;12.60;2.50;;;20.00;99.90;;;;;;1855100;76;21097;-72
2021/04/01 09:37:23;;;;;;;5.65;2.35;;;20.00;99.90;;;;;;1852521;76;21223;-72
2021/04/01 09:39:49;;;;;;;6.33;2.30;;;19.90;99.90;;;;;;1859378;76;21144;-72
2021/04/01 09:42:16;;;;;;;9.13;2.52;;;20.00;99.90;;;;;;1855048;76;21089;-72
2021/04/01 09:44:42;;;;;;;4.72;2.27;;;20.70;99.90;;;;;;1838335;76;21541;-72
2021/04/01 09:47:08;;;;;;;6.85;2.08;;;21.20;99.90;;;;;;1860030;76;21575;-71
2021/04/01 09:49:34;;;;;;;6.25;2.42;;;21.70;99.90;;;;;;1839750;77;22649;-72
2021/04/01 09:52:01;;;;;;;4.70;2.15;;;21.80;98.40;;;;;;1827114;77;21160;-72
2021/04/01 09:54:28;;;;;;;7.37;2.25;;;22.30;97.80;;;;;;1851486;76;21101;-71
2021/04/01 09:56:54;;;;;;;4.30;2.37;;;22.40;96.10;;;;;;1857508;76;21171;-72
2021/04/01 09:59:21;;;;;;;4.25;2.02;;;22.80;95.50;;;;;;1845579;76;21103;-71
2021/04/01 10:01:47;;;;;;;10.18;2.52;;;22.30;94.90;;;;;;1850019;76;21093;-72
2021/04/01 10:04:13;;;;;;;6.83;2.55;;;21.60;95.40;;;;;;1840622;76;21100;-71
2021/04/01 10:06:43;;;;;;;6.78;1.80;;;21.60;95.20;;;;;;1852166;76;21093;-72
2021/04/01 10:09:09;;;;;;;4.85;2.22;;;21.60;94.90;;;;;;1842977;77;21101;-71
2021/04/01 10:11:35;;;;;;;10.85;2.47;;;21.70;94.80;;;;;;1841321;76;21058;-71
2021/04/01 10:14:06;;;;;;;5.30;1.87;;;21.90;94.70;;;;;;1853874;76;21085;-71
2021/04/01 10:16:29;;;;;;;4.75;1.82;;;22.60;93.50;;;;;;1855056;76;21546;-70
2021/04/01 10:18:55;;;;;;;16.77;2.77;;;22.80;92.30;;;;;;1839556;77;21509;-71
2021/04/01 10:21:22;;;;;;;4.22;1.52;;;22.90;91.90;;;;;;1849520;76;21571;-70
2021/04/01 10:26:33;;;;;;;7.72;1.98;;;23.10;91.50;;;;;;1911204;73;21096;-70
2021/04/01 10:29:06;;;;;;;2.77;1.77;;;23.40;91.70;;;;;;1900926;73;21090;-72
2021/04/01 10:31:28;;;;;;;12.75;2.05;;;23.40;90.60;;;;;;1905125;73;21091;-70
2021/04/01 10:33:54;;;;;;;13.80;2.33;;;24.10;88.80;;;;;;1898300;73;21087;-70
2021/04/01 10:36:20;;;;;;;15.45;2.17;;;24.70;85.70;;;;;;1895363;73;21147;-70
2021/04/01 10:38:47;;;;;;;8.00;1.50;;;25.60;82.30;;;;;;1905327;73;21052;-70
2021/04/01 10:41:16;;;;;;;4.10;1.75;;;25.60;76.20;;;;;;1912204;74;21082;-69
2021/04/01 10:43:45;;;;;;;8.35;1.57;;;25.80;73.90;;;;;;1895234;73;21558;-70
2021/04/01 10:46:08;;;;;;;13.88;1.60;;;25.40;75.10;;;;;;1895238;73;21091;-70
2021/04/01 10:48:36;;;;;;;5.00;1.65;;;25.00;74.60;;;;;;1902530;73;21052;-70
2021/04/01 10:51:03;;;;;;;3.90;1.50;;;24.70;76.20;;;;;;1900715;73;21149;-70
2021/04/01 10:53:30;;;;;;;2.90;1.67;;;24.80;75.40;;;;;;1902581;74;21515;-70
2021/04/01 10:55:56;;;;;;;2.90;1.40;;;24.30;77.10;;;;;;1903104;73;21100;-70
2021/04/01 10:58:23;;;;;;;3.00;1.40;;;24.50;75.00;;;;;;1886641;74;21142;-70
2021/04/01 11:00:49;;;;;;;4.42;1.40;;;25.00;74.20;;;;;;1902931;73;21052;-70
2021/04/01 11:03:15;;;;;;;7.20;1.62;;;24.60;74.50;;;;;;1908353;73;21142;-70
2021/04/01 11:05:41;;;;;;;7.33;1.47;;;24.90;73.70;;;;;;1911214;74;21149;-70
2021/04/01 11:08:07;;;;;;;5.95;1.25;;;24.70;73.70;;;;;;1899517;74;21089;-70
2021/04/01 11:10:34;;;;;;;5.25;1.65;;;25.10;72.40;;;;;;1902354;73;21149;-72
2021/04/01 11:13:00;;;;;;;2.12;1.32;;;25.00;73.30;;;;;;1915524;73;21146;-69
2021/04/01 11:15:26;;;;;;;10.05;1.70;;;25.50;70.90;;;;;;1907915;73;21084;-70
2021/04/01 11:17:52;;;;;;;3.12;1.35;;;24.90;70.30;;;;;;1898388;73;21076;-70
2021/04/01 11:20:18;;;;;;;12.40;1.27;;;25.00;70.70;;;;;;1909660;73;21053;-69
2021/04/01 11:22:44;;;;;;;6.42;1.40;;;25.20;70.50;;;;;;1917745;74;21153;-70
2021/04/01 11:25:11;;;;;;;8.45;1.17;;;25.50;69.80;;;;;;1910884;73;21162;-70
2021/04/01 11:27:37;;;;;;;1.32;1.00;;;25.90;67.00;;;;;;1899099;73;21142;-70
2021/04/01 11:30:03;;;;;;;2.80;1.05;;;26.00;67.20;;;;;;1898872;73;21170;-70
2021/04/01 11:32:29;;;;;;;1.22;0.95;;;26.80;63.90;;;;;;1908642;73;21079;-71
2021/04/01 11:34:55;;;;;;;2.47;1.30;;;26.70;64.20;;;;;;1905233;73;21091;-71
2021/04/01 11:37:21;;;;;;;3.58;1.20;;;27.00;62.60;;;;;;1906372;73;21079;-70
2021/04/01 11:39:48;;;;;;;4.80;1.27;;;27.50;61.70;;;;;;1929003;73;21129;-71
2021/04/01 11:42:14;;;;;;;8.20;1.12;;;27.50;61.30;;;;;;1910937;73;21236;-71
2021/04/01 11:44:40;;;;;;;2.77;1.17;;;27.30;61.50;;;;;;1905034;73;21578;-71
2021/04/01 11:47:06;;;;;;;3.20;1.25;;;27.90;60.50;;;;;;1903869;73;21472;-70
2021/04/01 11:49:32;;;;;;;4.75;1.60;;;27.50;59.80;;;;;;1904684;73;21642;-70
2021/04/01 11:51:58;;;;;;;4.72;1.00;;;27.80;58.90;;;;;;1896800;73;21555;-70
2021/04/01 11:54:25;;;;;;;2.45;1.20;;;27.90;59.10;;;;;;1901974;73;21500;-70
2021/04/01 11:56:51;;;;;;;3.77;1.00;;;27.80;58.30;;;;;;1891900;73;21053;-70
2021/04/01 11:59:19;;;;;;;6.83;1.12;;;28.20;58.30;;;;;;1897982;73;21083;-71
2021/04/01 12:01:45;;;;;;;4.20;1.27;;;28.40;57.40;;;;;;1902775;73;21095;-71
2021/04/01 12:04:12;;;;;;;4.92;1.07;;;28.60;56.10;;;;;;1908098;73;21142;-71
2021/04/01 12:06:38;;;;;;;5.78;1.17;;;27.50;56.90;;;;;;1908723;73;21099;-71
2021/04/01 12:09:04;;;;;;;3.83;1.22;;;27.20;57.60;;;;;;1902886;73;21083;-71
2021/04/01 12:11:30;;;;;;;8.88;1.20;;;27.90;57.50;;;;;;1905522;73;21162;-71
2021/04/01 12:13:56;;;;;;;6.30;1.52;;;28.10;56.70;;;;;;1912721;74;21099;-71
2021/04/01 12:16:26;;;;;;;3.08;1.10;;;28.40;56.70;;;;;;1903446;73;21096;-70
2021/04/01 12:18:52;;;;;;;;;;;28.60;55.10;;;;;;1896257;73;21461;-71
2021/04/01 12:21:18;;;;;;;1.80;1.27;;;28.40;55.40;;;;;;1905890;73;20335;-71
2021/04/01 12:23:45;;;;;;;4.83;1.20;;;28.00;55.70;;;;;;1898304;73;21508;-70
2021/04/01 12:26:11;;;;;;;2.15;0.98;;;27.50;57.30;;;;;;1899695;73;21495;-71
2021/04/01 12:28:37;;;;;;;8.68;1.40;;;27.70;56.70;;;;;;1901032;73;21486;-70
2021/04/01 12:31:03;;;;;;;3.05;1.00;;;27.90;56.50;;;;;;1894678;73;21092;-70
2021/04/01 12:33:30;;;;;;;4.92;1.15;;;29.10;55.80;;;;;;1905616;73;21057;-71
2021/04/01 12:35:56;;;;;;;4.80;0.70;;;29.30;53.60;;;;;;1895541;73;21504;-71
2021/04/01 12:38:22;;;;;;;5.40;1.15;;;29.30;54.10;;;;;;1897705;73;21072;-71
2021/04/01 12:40:48;;;;;;;5.05;0.98;;;29.20;53.30;;;;;;1903461;73;21088;-70
2021/04/01 12:43:14;;;;;;;6.62;1.10;;;29.20;52.90;;;;;;1905218;73;21153;-71
2021/04/01 12:45:40;;;;;;;2.60;0.70;;;29.40;52.60;;;;;;1899990;73;21088;-71
2021/04/01 12:48:06;;;;;;;2.65;1.02;;;29.10;52.00;;;;;;1898203;74;21072;-71
2021/04/01 12:50:33;;;;;;;2.52;1.00;;;29.00;52.70;;;;;;1899205;74;21092;-71
2021/04/01 12:52:59;;;;;;;5.97;1.15;;;29.50;51.40;;;;;;1900947;73;21077;-70
2021/04/01 12:55:28;;;;;;;2.15;0.80;;;30.10;50.90;;;;;;1899791;73;21083;-71
2021/04/01 12:57:53;;;;;;;6.42;0.93;;;29.50;51.50;;;;;;1897726;73;21528;-71
2021/04/01 13:00:19;;;;;;;2.33;1.07;;;29.60;51.70;;;;;;1895162;74;21566;-71
2021/04/01 13:02:45;;;;;;;4.22;0.93;;;30.00;50.50;;;;;;1897297;73;21473;-70
2021/04/01 13:05:17;;;;;;;2.72;0.90;;;30.10;50.10;;;;;;1905419;73;21111;-70
2021/04/01 13:07:54;;;;;;;3.67;1.10;;;30.00;49.60;;;;;;1893463;73;21138;-71
2021/04/01 13:12:50;;;;;;;2.65;1.07;;;29.20;49.20;;;;;;1899903;73;21080;-70
2021/04/01 13:15:16;;;;;;;10.90;1.10;;;29.10;49.20;;;;;;1905085;73;21083;-71
2021/04/01 13:17:42;;;;;;;6.65;0.93;;;29.50;48.80;;;;;;1903481;73;21153;-71
2021/04/01 13:20:08;;;;;;;2.35;1.07;;;29.40;48.50;;;;;;1901338;73;21091;-71
2021/04/01 13:22:56;;;;;;;5.00;0.90;;;29.50;49.20;;;;;;1910905;73;21142;-71
2021/04/01 13:25:14;;;;;;;2.05;0.80;;;29.90;49.10;;;;;;1890194;73;21284;-69
2021/04/01 13:27:41;;;;;;;1.77;1.02;;;30.00;47.80;;;;;;1909152;73;21511;-71
2021/04/01 13:30:08;;;;;;;1.98;0.78;;;29.40;48.00;;;;;;1892046;73;21510;-71
2021/04/01 13:32:42;;;;;;;3.12;1.00;;;28.90;49.70;;;;;;1896038;73;21088;-71
2021/04/01 13:35:08;;;;;;;6.03;1.22;;;28.10;51.00;;;;;;1901384;73;21161;-70
2021/04/01 13:37:34;;;;;;;4.97;1.35;;;27.70;51.40;;;;;;1899361;73;21647;-70
2021/04/01 13:40:04;;;;;;;4.85;1.20;;;27.80;50.80;;;;;;1897751;73;21157;-71
2021/04/01 13:42:31;;;;;;;10.38;1.12;;;27.80;50.90;;;;;;1894668;73;21438;-71
2021/04/01 13:45:06;;;;;;;2.40;1.47;;;28.30;51.00;;;;;;1897388;73;21158;-71
2021/04/01 13:47:28;;;;;;;3.00;0.98;;;28.60;50.90;;;;;;1895240;73;21153;-70
2021/04/01 13:49:55;;;;;;;2.95;1.15;;;28.10;50.10;;;;;;1905284;73;21484;-71
2021/04/01 13:53:13;;;;;;;3.85;1.10;;;27.70;50.90;;;;;;1907284;73;21169;-71
2021/04/01 13:55:08;;;;;;;2.35;1.12;;;27.70;50.70;;;;;;1892053;73;21302;-70